• Join FlightAware (Why Join?)
  • Login
  • US Flag 
02:22PM EDT


 

Airport Tracker/Info


-or-


 

Live Flight TrackerFlight Track Log ✈ SWA168 ✈ 18-Jul-2013 ✈ KLAX - KELP

Flight Track Log - Related Links

Times and Time Zones

All times are in EDT time to prevent confusion due to time zone crossing. See the SWA168 flight status page for this flight to view local times or setup timezone preferences in your user account.

Time Position Orientation Groundspeed Altitude Reporting Facility
EDT Latitude Longitude Course Direction KTS MPH feet Rate Location/Type
07:30PM 33.9500 -118.4667 208° Southwest 182 209 1,700  Level Southern California TRACON
07:31PM 33.8769 -118.5125 208° Southwest 264 304 4,600 2,340 Climbing Los Angeles Center
07:32PM 33.8097 -118.5158 182° South 276 318 7,100 2,700 Climbing Los Angeles Center
07:33PM 33.7136 -118.5117 178° South 295 339 10,200 2,580 Climbing Los Angeles Center
07:34PM 33.6694 -118.4322 124° Southeast 295 339 12,500 1,800 Climbing Los Angeles Center
07:35PM 33.6450 -118.3314 106° East 319 367 14,000 1,680 Climbing Los Angeles Center
07:36PM 33.6433 -118.2186 91° East 344 396 16,000 1,740 Climbing Los Angeles Center
07:37PM 33.6442 -118.0742 90° East 365 420 17,600 1,560 Climbing Los Angeles Center
07:38PM 33.6422 -117.9439 91° East 389 448 19,300 1,680 Climbing Los Angeles Center
07:39PM 33.6292 -117.8153 97° East 390 449 21,100 1,500 Climbing Los Angeles Center
07:40PM 33.6172 -117.6819 96° East 401 461 22,400 1,260 Climbing Los Angeles Center
07:41PM 33.6053 -117.5444 96° East 414 476 23,800 1,500 Climbing Los Angeles Center
07:42PM 33.5892 -117.3781 97° East 420 483 25,500 1,320 Climbing Los Angeles Center
07:43PM 33.5761 -117.2364 96° East 428 493 26,600 960 Climbing Los Angeles Center
07:44PM 33.5625 -117.0969 97° East 433 498 27,600 1,020 Climbing Los Angeles Center
07:45PM 33.5492 -116.9497 96° East 441 507 28,800 1,140 Climbing Los Angeles Center
07:46PM 33.5347 -116.8025 97° East 445 512 30,000 1,200 Climbing Los Angeles Center
07:47PM 33.5200 -116.6581 97° East 438 504 31,400 1,080 Climbing Los Angeles Center
07:49PM 33.5028 -116.4850 97° East 435 501 32,500 960 Climbing Los Angeles Center
07:50PM 33.4869 -116.3139 96° East 432 497 33,600 840 Climbing Los Angeles Center
07:51PM 33.4706 -116.1692 98° East 432 497 34,300 660 Climbing Los Angeles Center
07:52PM 33.4561 -116.0233 97° East 437 503 35,000 300 Climbing Los Angeles Center
07:53PM 33.4397 -115.8764 98° East 443 510 35,000 -60 Level Los Angeles Center
07:54PM 33.4239 -115.7300 97° East 442 509 34,900  Descending Los Angeles Center
07:55PM 33.4072 -115.5858 98° East 439 505 35,000  Climbing Los Angeles Center
07:56PM 33.3881 -115.4139 98° East 435 501 34,900  Descending Los Angeles Center
07:57PM 33.3731 -115.2711 97° East 432 497 35,000  Climbing Los Angeles Center
07:58PM 33.3564 -115.1289 98° East 433 498 35,000  Level Los Angeles Center
07:59PM 33.3394 -114.9864 98° East 433 498 35,000  Level Los Angeles Center
08:00PM 33.3208 -114.8172 97° East 430 495 35,000  Level Los Angeles Center
08:01PM 33.3042 -114.6764 98° East 428 493 35,000  Level Los Angeles Center
08:02PM 33.2842 -114.5078 98° East 428 493 35,000  Level Los Angeles Center
08:03PM 33.2672 -114.3667 98° East 429 494 35,000  Level Los Angeles Center
08:04PM 33.2589 -114.2619 95° East 427 491 35,000 -60 Level Albuquerque Center
08:05PM 33.2369 -114.0939 99° East 427 491 34,900 -60 Descending Albuquerque Center
08:06PM 33.2194 -113.9528 98° East 429 494 34,900  Level Albuquerque Center
08:07PM 33.2031 -113.8125 98° East 427 491 35,000  Climbing Albuquerque Center
08:08PM 33.1853 -113.6717 99° East 428 493 35,000  Level Albuquerque Center
08:09PM 33.1683 -113.5303 98° East 430 495 35,000 -60 Level Albuquerque Center
08:10PM 33.1494 -113.3903 99° East 428 493 34,900 -60 Descending Albuquerque Center
08:11PM 33.1319 -113.2500 98° East 428 493 34,900  Level Albuquerque Center
08:12PM 33.1142 -113.1086 98° East 429 494 35,000  Climbing Albuquerque Center
08:13PM 33.0961 -112.9681 99° East 428 493 35,000  Level Albuquerque Center
08:15PM 33.0744 -112.7981 99° East 430 495 35,000  Level Albuquerque Center
08:16PM 33.0556 -112.6578 99° East 428 493 35,000  Level Albuquerque Center
08:17PM 33.0372 -112.5186 99° East 425 489 35,000  Level Albuquerque Center
08:18PM 33.0181 -112.3789 99° East 426 490 35,000  Level Albuquerque Center
08:19PM 32.9969 -112.2308 100° East 424 488 35,000  Level Albuquerque Center
08:20PM 32.9775 -112.0831 99° East 423 487 35,000  Level Albuquerque Center
08:21PM 32.9589 -111.9458 99° East 422 486 35,000  Level Albuquerque Center
08:22PM 32.9378 -111.7981 100° East 422 486 35,000  Level Albuquerque Center
08:23PM 32.9192 -111.6597 99° East 424 488 35,000  Level Albuquerque Center
08:24PM 32.8989 -111.5125 99° East 422 486 35,000  Level Albuquerque Center
08:25PM 32.8789 -111.3767 100° East 419 482 35,000  Level Albuquerque Center
08:26PM 32.8611 -111.2558 100° East 419 482 35,000  Level Albuquerque Center
08:27PM 32.8436 -111.1225 99° East 413 475 35,000  Level Albuquerque Center
08:28PM 32.8200 -110.9606 100° East 416 479 35,000  Level Albuquerque Center
08:29PM 32.7997 -110.8253 100° East 417 480 35,000  Level Albuquerque Center
08:30PM 32.7786 -110.6897 100° East 418 481 35,000  Level Albuquerque Center
08:31PM 32.7586 -110.5531 100° East 420 483 35,000  Level Albuquerque Center
08:32PM 32.7372 -110.4167 101° East 421 484 35,000  Level Albuquerque Center
08:33PM 32.7167 -110.2806 100° East 420 483 35,000  Level Albuquerque Center
08:34PM 32.6894 -110.1181 101° East 421 484 35,000  Level Albuquerque Center
08:36PM 32.6592 -109.9258 101° East  Level FlightAware Approximate
08:36PM 32.6239 -109.8564 101° East 416 479 35,000  Level Albuquerque Center
08:37PM 32.5922 -109.7242 106° East 417 480 35,000  Level Albuquerque Center
08:38PM 32.5658 -109.5931 103° East 413 475 35,000  Level Albuquerque Center
08:39PM 32.5417 -109.4611 102° East 412 474 35,000  Level Albuquerque Center
08:40PM 32.5131 -109.3039 102° East 411 473 35,000  Level Albuquerque Center
08:41PM 32.4917 -109.1719 101° East 411 473 35,000  Level Albuquerque Center
08:42PM 32.4672 -109.0394 102° East 413 475 35,000 -480 Level Albuquerque Center
08:43PM 32.4481 -108.9036 99° East 418 481 34,100 -900 Descending Albuquerque Center
08:44PM 32.4253 -108.7706 101° East 418 481 33,200 -540 Descending Albuquerque Center
08:45PM 32.4019 -108.6375 102° East 418 481 33,000 -120 Descending Albuquerque Center
08:46PM 32.3767 -108.4836 101° East 404 465 33,000  Level Albuquerque Center
08:47PM 32.3572 -108.3731 102° East 399 459 33,000  Level Albuquerque Center
08:48PM 32.3294 -108.2133 102° East 411 473 33,000  Level Albuquerque Center
08:49PM 32.3064 -108.0775 101° East 420 483 33,000 -840 Level Albuquerque Center
08:50PM 32.2822 -107.9383 102° East 431 496 31,400 -1,920 Descending Albuquerque Center
08:52PM 32.2575 -107.7950 101° East 444 511 29,100 -2,160 Descending Albuquerque Center
08:53PM 32.2336 -107.6589 102° East 432 497 27,000 -2,100 Descending Albuquerque Center
08:54PM 32.2097 -107.5297 102° East 413 475 24,900 -2,100 Descending Albuquerque Center
08:55PM 32.1836 -107.3903 102° East 392 451 22,700 -2,100 Descending Albuquerque Center
08:56PM 32.1636 -107.2625 100° East 381 438 20,600 -1,920 Descending Albuquerque Center
08:57PM 32.1428 -107.1508 102° East 360 414 18,800 -1,680 Descending Albuquerque Center
08:57PM 32.1289 -107.0758 102° East 345 397 17,800 -1,800 Descending Albuquerque Center
08:59PM 32.1039 -106.9369 102° East 337 388 15,200 -1,920 Descending Albuquerque Center
09:00PM 32.0856 -106.8408 103° East 319 367 13,600 -1,800 Descending Albuquerque Center
09:01PM 32.0675 -106.7400 102° East 309 356 11,900 -1,620 Descending Albuquerque Center
09:02PM 32.0469 -106.6475 105° East 296 341 10,400 -1,320 Descending Albuquerque Center
09:03PM 32.0331 -106.5583 100° East 273 314 9,300 -1,140 Descending Albuquerque Center
09:04PM 32.0192 -106.4692 100° East 251 289 8,200 -1,200 Descending Albuquerque Center
09:05PM 32.0047 -106.3900 102° East 240 276 7,000 -600 Descending Albuquerque Center
09:06PM 31.9667 -106.3319 128° Southeast 235 270 7,000 -60 Level Albuquerque Center
09:07PM 31.9114 -106.2981 153° Southeast 219 252 6,900 -660 Descending Albuquerque Center
09:08PM 31.8675 -106.3042 187° South 162 186 5,700 -1,200 Descending Albuquerque Center
09:09PM 31.8411 -106.3456 233° Southwest 157 181 4,500 -720 Descending Albuquerque Center
09:10PM 31.8042 -106.3900 226° Southwest 153 176 4,000 -420 Descending Albuquerque Center
09:12PM 31.8072 -106.3764 90° East  Level Estimated
09:19PM 31.8072 -106.3764 90° East  Level Estimated
09:20PM 31.8072 -106.3764 90° East  Level Estimated
09:21PM 31.8072 -106.3764 90° East  Level Estimated